Time;durP1;ratioP1;P1;durP2;ratioP2;P2;SDS_P1;SDS_P2;PMS_P1;PMS_P2;Temp;Humidity;BMP_temperature;BMP_pressure;BME280_temperature;BME280_humidity;BME280_pressure;Samples;Min_cycle;Max_cycle;Signal;HPM_P1;HPM_P2
2022/08/05 00:00:17;;;;;;;4.50;2.38;;;27.50;79.10;;;;;;4956242;29;20445;-44
2022/08/05 00:02:44;;;;;;;7.82;3.30;;;27.40;79.80;;;;;;4956372;28;20452;-44
2022/08/05 00:05:10;;;;;;;12.15;2.60;;;27.30;81.50;;;;;;4956023;28;20062;-43
2022/08/05 00:07:35;;;;;;;8.25;3.03;;;27.20;82.60;;;;;;4956527;28;20047;-45
2022/08/05 00:10:01;;;;;;;9.45;3.30;;;27.20;83.40;;;;;;4955125;29;20031;-44
2022/08/05 00:12:26;;;;;;;17.58;4.43;;;27.00;84.90;;;;;;4956195;29;20023;-44
2022/08/05 00:14:52;;;;;;;20.38;3.13;;;27.00;86.60;;;;;;4956349;28;20031;-42
2022/08/05 00:17:17;;;;;;;13.50;3.63;;;26.90;87.80;;;;;;4956213;29;20039;-45
2022/08/05 00:19:43;;;;;;;20.92;4.05;;;26.90;89.10;;;;;;4956237;29;20042;-44
2022/08/05 00:22:08;;;;;;;14.30;3.80;;;26.90;89.80;;;;;;4955984;29;20038;-45
2022/08/05 00:24:34;;;;;;;21.58;4.28;;;27.00;90.20;;;;;;4956150;28;20098;-46
2022/08/05 00:27:00;;;;;;;6.72;4.47;;;26.80;90.60;;;;;;4956104;29;20377;-48
2022/08/05 00:29:26;;;;;;;14.70;5.03;;;26.80;90.90;;;;;;4955848;28;20496;-44
2022/08/05 00:31:52;;;;;;;15.90;5.78;;;26.80;91.20;;;;;;4955854;28;20032;-49
2022/08/05 00:34:18;;;;;;;11.13;5.10;;;26.80;91.30;;;;;;4955518;28;20410;-45
2022/08/05 00:36:43;;;;;;;13.82;5.30;;;26.90;91.60;;;;;;4955807;29;20039;-45
2022/08/05 00:39:09;;;;;;;13.63;5.00;;;26.80;91.90;;;;;;4955866;29;20205;-45
2022/08/05 00:41:35;;;;;;;10.52;5.13;;;26.80;92.10;;;;;;4955772;28;20019;-48
2022/08/05 00:44:01;;;;;;;18.90;5.65;;;26.80;92.60;;;;;;4955244;28;20429;-44
2022/08/05 00:46:27;;;;;;;10.38;5.25;;;26.70;92.90;;;;;;4955876;28;20066;-45
2022/08/05 00:48:53;;;;;;;9.23;5.07;;;26.70;93.40;;;;;;4955580;29;20105;-45
2022/08/05 00:51:20;;;;;;;10.70;6.55;;;26.60;93.70;;;;;;4955592;28;20129;-44
2022/08/05 00:53:46;;;;;;;9.07;5.10;;;26.50;94.30;;;;;;4955221;28;20086;-44
2022/08/05 00:56:13;;;;;;;8.27;4.97;;;26.30;94.70;;;;;;4954017;29;20031;-43
2022/08/05 00:58:39;;;;;;;7.90;4.60;;;26.30;95.00;;;;;;4955696;28;20536;-47
2022/08/05 01:01:04;;;;;;;9.02;4.13;;;26.30;95.10;;;;;;4955367;29;20039;-43
2022/08/05 01:03:30;;;;;;;14.57;3.80;;;26.30;95.10;;;;;;4955203;28;20143;-45
2022/08/05 01:05:55;;;;;;;13.00;3.55;;;26.20;95.10;;;;;;4953931;29;20031;-43
2022/08/05 01:08:21;;;;;;;11.35;3.67;;;26.20;95.20;;;;;;4955222;29;20023;-46
2022/08/05 01:10:52;;;;;;;7.68;3.55;;;26.20;95.10;;;;;;4955136;29;20501;-43
2022/08/05 01:13:35;;;;;;;10.35;3.28;;;26.30;94.90;;;;;;4955109;28;20036;-46
2022/08/05 01:16:03;;;;;;;5.72;3.05;;;26.40;95.00;;;;;;4955288;28;20031;-44
2022/08/05 01:18:33;;;;;;;7.75;3.28;;;26.30;94.60;;;;;;4955001;28;20028;-45
2022/08/05 01:21:25;;;;;;;6.78;3.28;;;26.30;94.70;;;;;;4955001;28;20023;-46
2022/08/05 01:24:09;;;;;;;10.07;3.03;;;26.30;94.80;;;;;;4954626;28;20071;-43
2022/08/05 01:27:01;;;;;;;3.58;2.67;;;26.30;94.60;;;;;;4954935;28;20118;-45
2022/08/05 01:29:40;;;;;;;3.83;2.70;;;26.40;94.60;;;;;;4955933;28;20023;-44
2022/08/05 01:32:10;;;;;;;4.70;2.70;;;26.40;94.50;;;;;;4955365;28;20019;-45
2022/08/05 01:34:46;;;;;;;8.13;2.65;;;26.40;94.40;;;;;;4954478;28;20030;-44
2022/08/05 01:37:18;;;;;;;6.60;2.40;;;26.40;94.40;;;;;;4954191;28;20027;-44
2022/08/05 01:39:46;;;;;;;9.57;3.30;;;26.40;94.20;;;;;;4954869;28;20436;-43
2022/08/05 01:42:15;;;;;;;7.53;2.92;;;26.40;94.20;;;;;;4954488;28;20031;-43
2022/08/05 01:44:41;;;;;;;5.53;2.45;;;26.40;94.10;;;;;;4954405;28;20019;-45
2022/08/05 01:47:08;;;;;;;6.22;2.63;;;26.40;94.10;;;;;;4954686;28;20508;-48
2022/08/05 01:49:35;;;;;;;9.45;3.05;;;26.30;94.20;;;;;;4954910;28;20031;-44
2022/08/05 01:52:02;;;;;;;3.45;2.22;;;26.30;94.20;;;;;;4954509;28;20055;-44
2022/08/05 01:54:52;;;;;;;3.55;2.60;;;26.30;93.60;;;;;;4953581;28;20023;-43
2022/08/05 01:57:26;;;;;;;6.50;2.70;;;26.40;93.50;;;;;;4954467;28;20435;-45
2022/08/05 01:59:55;;;;;;;6.60;2.97;;;26.50;93.30;;;;;;4954681;28;20374;-43
2022/08/05 02:02:22;;;;;;;6.35;5.07;;;26.50;93.30;;;;;;4954135;28;20259;-43
2022/08/05 02:04:48;;;;;;;4.53;3.13;;;26.50;93.50;;;;;;4954146;28;20019;-43
2022/08/05 02:07:14;;;;;;;7.28;3.17;;;26.40;93.50;;;;;;4954752;28;20556;-47
2022/08/05 02:09:40;;;;;;;5.80;2.80;;;26.30;93.60;;;;;;4954565;29;20107;-43
2022/08/05 02:12:07;;;;;;;4.13;2.95;;;26.30;93.80;;;;;;4954136;29;20503;-45
2022/08/05 02:14:42;;;;;;;4.63;2.40;;;26.20;94.40;;;;;;4953834;28;20026;-45
2022/08/05 02:17:18;;;;;;;5.45;2.72;;;26.20;94.70;;;;;;4954437;28;20031;-43
2022/08/05 02:19:49;;;;;;;4.97;3.17;;;26.20;94.70;;;;;;4953986;28;20027;-47
2022/08/05 02:22:27;;;;;;;6.40;2.53;;;26.10;94.90;;;;;;4954260;28;20031;-45
2022/08/05 02:25:00;;;;;;;9.02;3.75;;;26.10;95.10;;;;;;4953617;28;20134;-43
2022/08/05 02:27:27;;;;;;;5.75;3.08;;;26.10;95.20;;;;;;4953971;28;20030;-42
2022/08/05 02:29:54;;;;;;;12.18;2.95;;;25.90;95.40;;;;;;4953982;28;20493;-45
2022/08/05 02:32:21;;;;;;;6.00;2.60;;;26.00;95.70;;;;;;4953658;28;20031;-45
2022/08/05 02:34:48;;;;;;;8.48;3.00;;;26.00;95.70;;;;;;4952303;29;20024;-46
2022/08/05 02:37:15;;;;;;;3.67;2.80;;;25.80;96.00;;;;;;4953915;28;20038;-46
2022/08/05 02:39:41;;;;;;;5.90;2.78;;;25.80;96.50;;;;;;4953901;28;20441;-47
2022/08/05 02:42:08;;;;;;;3.53;2.40;;;25.70;96.40;;;;;;4952424;29;20023;-43
2022/08/05 02:44:36;;;;;;;18.27;6.05;;;25.70;96.50;;;;;;4953409;28;20023;-44
2022/08/05 02:47:04;;;;;;;6.70;2.35;;;25.80;96.40;;;;;;4953659;28;20027;-43
2022/08/05 02:49:33;;;;;;;4.55;2.72;;;25.70;96.40;;;;;;4953622;28;20497;-43
2022/08/05 02:52:01;;;;;;;12.75;2.72;;;25.80;96.90;;;;;;4953561;28;20035;-45
2022/08/05 02:54:27;;;;;;;6.18;2.80;;;25.70;97.60;;;;;;4952729;28;20082;-47
2022/08/05 02:56:53;;;;;;;3.63;2.65;;;25.60;98.00;;;;;;4953874;29;20024;-42
2022/08/05 02:59:21;;;;;;;7.60;2.60;;;25.50;96.30;;;;;;4953668;28;20027;-45
2022/08/05 03:01:50;;;;;;;4.32;3.45;;;25.40;99.10;;;;;;4952269;29;20024;-44
2022/08/05 03:04:17;;;;;;;3.53;2.20;;;25.30;99.90;;;;;;4953135;28;20027;-46
2022/08/05 03:06:42;;;;;;;3.65;3.35;;;25.20;99.90;;;;;;4952059;29;20039;-44
2022/08/05 03:09:12;;;;;;;8.90;2.92;;;25.10;99.90;;;;;;4953434;29;20023;-43
2022/08/05 03:11:41;;;;;;;8.82;3.13;;;25.10;99.90;;;;;;4953522;28;20510;-44
2022/08/05 03:14:07;;;;;;;7.05;3.30;;;25.10;99.90;;;;;;4953036;28;20493;-42
2022/08/05 03:16:32;;;;;;;8.15;3.30;;;25.10;99.90;;;;;;4953481;29;20109;-47
2022/08/05 03:18:59;;;;;;;15.13;3.95;;;25.10;99.90;;;;;;4953365;29;20031;-45
2022/08/05 03:21:25;;;;;;;8.90;3.47;;;25.10;99.90;;;;;;4953267;28;20031;-48
2022/08/05 03:23:51;;;;;;;5.75;3.17;;;24.90;99.90;;;;;;4953201;28;20045;-48
2022/08/05 03:26:16;;;;;;;10.18;3.20;;;24.80;99.90;;;;;;4953353;29;20027;-43
2022/08/05 03:28:42;;;;;;;6.03;3.30;;;24.70;99.90;;;;;;4953299;29;20023;-43
2022/08/05 03:31:08;;;;;;;7.13;3.78;;;24.70;99.90;;;;;;4953267;29;20027;-43
2022/08/05 03:33:34;;;;;;;9.43;4.20;;;24.70;99.90;;;;;;4952929;28;20035;-42
2022/08/05 03:36:00;;;;;;;6.85;4.20;;;24.60;99.90;;;;;;4953279;28;20035;-47
2022/08/05 03:38:26;;;;;;;5.88;4.10;;;24.40;99.90;;;;;;4953312;29;20040;-43
2022/08/05 03:40:52;;;;;;;10.15;4.30;;;24.40;99.90;;;;;;4953163;29;20066;-44
2022/08/05 03:43:19;;;;;;;6.75;4.18;;;24.10;99.90;;;;;;4952665;28;20067;-44
2022/08/05 03:45:45;;;;;;;12.57;4.72;;;23.80;99.90;;;;;;4952984;28;20037;-44
2022/08/05 03:48:10;;;;;;;13.25;4.35;;;23.60;99.90;;;;;;4953064;28;20062;-46
2022/08/05 03:50:54;;;;;;;9.85;4.50;;;23.40;99.90;;;;;;4953212;29;20050;-43
2022/08/05 03:53:34;;;;;;;6.90;4.60;;;23.20;99.90;;;;;;4952733;28;20031;-44
2022/08/05 03:56:14;;;;;;;9.65;4.75;;;23.10;99.90;;;;;;4952724;28;20029;-44
2022/08/05 03:58:44;;;;;;;9.07;4.68;;;23.10;99.90;;;;;;4953501;28;20030;-45
2022/08/05 04:01:10;;;;;;;7.05;4.63;;;22.90;99.90;;;;;;4956982;28;20413;-45
2022/08/05 04:03:38;;;;;;;10.60;5.30;;;22.90;99.90;;;;;;4954836;28;20055;-46
2022/08/05 04:06:05;;;;;;;12.93;5.57;;;22.90;99.90;;;;;;4956396;28;20381;-45
2022/08/05 04:08:33;;;;;;;20.70;5.22;;;22.80;99.90;;;;;;4956743;28;20026;-45
2022/08/05 04:11:01;;;;;;;5.82;4.53;;;22.70;99.90;;;;;;4954945;29;20029;-43
2022/08/05 04:13:27;;;;;;;16.45;5.75;;;22.80;99.90;;;;;;4955980;28;20409;-42
2022/08/05 04:15:53;;;;;;;9.45;5.20;;;22.80;99.90;;;;;;4956227;28;20101;-44
2022/08/05 04:18:22;;;;;;;10.55;5.05;;;22.90;99.90;;;;;;4956202;29;20546;-44
2022/08/05 04:20:55;;;;;;;9.30;5.25;;;22.80;99.90;;;;;;4956228;28;20041;-43
2022/08/05 04:23:23;;;;;;;11.15;4.88;;;22.90;99.90;;;;;;4955618;28;20444;-45
2022/08/05 04:25:49;;;;;;;8.43;5.40;;;23.00;99.90;;;;;;4956195;28;20059;-44
2022/08/05 04:28:14;;;;;;;10.63;5.85;;;23.00;99.90;;;;;;4956064;29;20496;-43
2022/08/05 04:30:40;;;;;;;7.35;4.90;;;23.00;99.90;;;;;;4954506;29;20027;-44
2022/08/05 04:33:05;;;;;;;9.50;4.80;;;23.00;99.90;;;;;;4955554;28;20023;-46
2022/08/05 04:35:31;;;;;;;11.25;5.53;;;23.00;99.90;;;;;;4955835;29;20061;-43
2022/08/05 04:37:56;;;;;;;9.00;5.70;;;23.00;99.90;;;;;;4955725;29;20058;-43
2022/08/05 04:40:22;;;;;;;8.05;5.13;;;23.00;99.90;;;;;;4955767;29;20038;-42
2022/08/05 04:42:47;;;;;;;7.53;5.43;;;23.00;99.90;;;;;;4954409;29;20055;-42
2022/08/05 04:45:13;;;;;;;9.80;5.90;;;22.90;99.90;;;;;;4955354;28;20035;-42
2022/08/05 04:47:38;;;;;;;8.77;5.93;;;22.80;99.90;;;;;;4955658;29;20023;-45
2022/08/05 04:50:04;;;;;;;11.55;6.15;;;22.70;99.90;;;;;;4954382;29;20134;-43
2022/08/05 04:52:30;;;;;;;12.38;6.03;;;22.60;99.90;;;;;;4955370;29;20023;-42
2022/08/05 04:54:55;;;;;;;15.00;7.18;;;22.60;99.90;;;;;;4954938;28;20027;-42
2022/08/05 04:57:21;;;;;;;14.30;6.60;;;22.60;99.90;;;;;;4954259;29;20039;-45
2022/08/05 04:59:46;;;;;;;10.18;6.28;;;22.50;99.90;;;;;;4954162;29;20114;-46
2022/08/05 05:02:12;;;;;;;8.23;5.85;;;22.50;99.90;;;;;;4954022;29;20023;-43
2022/08/05 05:04:37;;;;;;;8.23;6.35;;;22.40;99.90;;;;;;4953724;28;20024;-45
2022/08/05 05:07:03;;;;;;;13.63;6.13;;;22.40;99.90;;;;;;4955157;29;20516;-44
2022/08/05 05:09:28;;;;;;;13.20;6.10;;;22.30;99.90;;;;;;4953915;28;20031;-43
2022/08/05 05:11:54;;;;;;;14.57;6.68;;;22.40;99.90;;;;;;4953931;29;20043;-42
2022/08/05 05:14:19;;;;;;;19.52;6.53;;;22.40;99.90;;;;;;4954743;28;20031;-48
2022/08/05 05:16:45;;;;;;;6.82;5.07;;;22.50;99.90;;;;;;4955103;29;20441;-43
2022/08/05 05:19:10;;;;;;;6.53;5.88;;;22.60;99.90;;;;;;4954892;29;20035;-44
2022/08/05 05:21:36;;;;;;;7.90;5.60;;;22.80;99.90;;;;;;4955192;29;20055;-44
2022/08/05 05:24:01;;;;;;;8.23;5.93;;;23.30;99.90;;;;;;4954659;28;20102;-43
2022/08/05 05:26:27;;;;;;;8.93;5.88;;;23.50;99.90;;;;;;4954917;29;20024;-45
2022/08/05 05:28:52;;;;;;;5.72;5.07;;;23.50;99.90;;;;;;4954779;29;20031;-47
2022/08/05 05:31:18;;;;;;;6.40;5.75;;;23.40;99.90;;;;;;4954801;29;20034;-43
2022/08/05 05:33:43;;;;;;;9.05;5.57;;;23.30;99.90;;;;;;4954361;28;20024;-44
2022/08/05 05:36:09;;;;;;;9.20;5.32;;;23.20;99.90;;;;;;4954670;29;20038;-45
2022/08/05 05:38:34;;;;;;;8.63;5.25;;;23.20;99.90;;;;;;4954704;29;20027;-43
2022/08/05 05:41:00;;;;;;;7.38;5.47;;;23.10;99.90;;;;;;4954668;29;20040;-44
2022/08/05 05:43:25;;;;;;;7.60;5.13;;;23.20;99.90;;;;;;4954261;28;20405;-44
2022/08/05 05:45:51;;;;;;;9.05;4.82;;;23.30;99.90;;;;;;4954567;29;20031;-43
2022/08/05 05:48:16;;;;;;;4.82;4.43;;;23.30;99.90;;;;;;4954416;29;20192;-44
2022/08/05 05:50:42;;;;;;;7.07;4.13;;;23.40;99.90;;;;;;4954442;29;20032;-42
2022/08/05 05:53:08;;;;;;;5.68;4.32;;;23.60;99.90;;;;;;4952768;28;20023;-47
2022/08/05 05:55:34;;;;;;;4.80;4.30;;;23.90;99.90;;;;;;4954226;28;20030;-44
2022/08/05 05:57:59;;;;;;;6.13;4.55;;;24.70;99.90;;;;;;4954362;29;20035;-44
2022/08/05 06:00:25;;;;;;;6.68;3.75;;;25.40;99.90;;;;;;4954303;29;20027;-43
2022/08/05 06:02:50;;;;;;;3.47;3.20;;;26.50;99.90;;;;;;4954098;29;20031;-45
2022/08/05 06:05:17;;;;;;;4.10;3.40;;;27.60;99.90;;;;;;4953883;28;20028;-46
2022/08/05 06:07:44;;;;;;;15.48;3.97;;;28.30;99.90;;;;;;4954314;28;20461;-46
2022/08/05 06:10:10;;;;;;;6.57;3.33;;;28.10;99.90;;;;;;4953175;29;20110;-43
2022/08/05 06:12:37;;;;;;;4.82;3.20;;;27.80;99.90;;;;;;4954118;28;20054;-43
2022/08/05 06:15:04;;;;;;;3.22;2.90;;;27.20;99.90;;;;;;4953823;28;20027;-45
2022/08/05 06:17:30;;;;;;;5.28;3.65;;;26.70;99.90;;;;;;4954433;28;20035;-45
2022/08/05 06:19:55;;;;;;;4.65;3.72;;;26.30;99.90;;;;;;4954322;29;20035;-45
2022/08/05 06:22:23;;;;;;;4.32;3.15;;;26.10;99.90;;;;;;4953859;28;20023;-45
2022/08/05 06:24:49;;;;;;;5.10;3.17;;;26.10;99.90;;;;;;4954751;28;20042;-43
2022/08/05 06:27:14;;;;;;;6.25;3.10;;;26.20;99.90;;;;;;4953928;29;20046;-46
2022/08/05 06:29:40;;;;;;;7.68;3.20;;;26.10;99.90;;;;;;4954390;29;20037;-43
2022/08/05 06:32:06;;;;;;;3.10;2.53;;;26.00;99.90;;;;;;4954023;29;20489;-47
2022/08/05 06:34:31;;;;;;;5.38;3.35;;;26.00;99.90;;;;;;4952552;29;20027;-43
2022/08/05 06:36:57;;;;;;;4.15;2.97;;;26.00;99.90;;;;;;4953927;29;20066;-46
2022/08/05 06:39:22;;;;;;;6.95;4.32;;;25.80;99.90;;;;;;4954141;29;20041;-43
2022/08/05 06:41:49;;;;;;;7.03;3.17;;;25.80;99.90;;;;;;4953753;28;20481;-47
2022/08/05 06:44:14;;;;;;;4.03;3.10;;;25.60;99.90;;;;;;4953397;28;20027;-43
2022/08/05 06:46:40;;;;;;;4.35;3.75;;;25.50;99.90;;;;;;4953793;28;20054;-46
2022/08/05 06:49:05;;;;;;;5.55;3.60;;;25.30;99.90;;;;;;4953856;29;20026;-45
2022/08/05 06:51:31;;;;;;;5.95;3.90;;;25.20;99.90;;;;;;4953905;29;20027;-45
2022/08/05 06:53:58;;;;;;;12.35;4.78;;;25.00;99.90;;;;;;4953246;28;20094;-44
2022/08/05 06:56:23;;;;;;;6.30;4.38;;;24.70;99.90;;;;;;4953187;28;20114;-46
2022/08/05 06:58:49;;;;;;;7.43;4.70;;;24.40;99.90;;;;;;4953577;29;20106;-46
2022/08/05 07:01:15;;;;;;;8.93;5.72;;;24.20;99.90;;;;;;4953476;28;20024;-44
2022/08/05 07:03:40;;;;;;;6.72;4.03;;;24.00;99.90;;;;;;4953179;28;20023;-47
2022/08/05 07:06:06;;;;;;;7.80;4.28;;;23.90;99.90;;;;;;4952123;29;20031;-45
2022/08/05 07:08:32;;;;;;;4.63;3.70;;;23.80;99.90;;;;;;4953537;28;20405;-45
2022/08/05 07:10:57;;;;;;;8.82;3.85;;;23.70;99.90;;;;;;4953240;29;20038;-47
2022/08/05 07:18:51;;;;;;;5.65;4.03;;;23.60;99.90;;;;;;4953322;29;20043;-47
2022/08/05 07:21:16;;;;;;;7.38;3.85;;;23.40;99.90;;;;;;4953238;29;20031;-43
2022/08/05 07:23:42;;;;;;;5.28;3.97;;;23.40;99.90;;;;;;4952873;28;20046;-45
2022/08/05 07:26:07;;;;;;;7.38;4.57;;;23.30;99.90;;;;;;4953069;29;20042;-44
2022/08/05 07:28:33;;;;;;;6.05;4.40;;;23.30;99.90;;;;;;4953338;29;20024;-45
2022/08/05 07:30:59;;;;;;;8.18;4.25;;;23.30;99.90;;;;;;4953491;29;20035;-44
2022/08/05 07:33:24;;;;;;;5.82;3.85;;;23.30;99.90;;;;;;4953084;28;20023;-44
2022/08/05 07:35:50;;;;;;;7.65;4.07;;;23.30;99.90;;;;;;4957022;29;20027;-44
2022/08/05 07:38:16;;;;;;;4.40;3.80;;;23.30;99.90;;;;;;4957096;29;20046;-42
2022/08/05 07:40:44;;;;;;;7.35;4.07;;;23.30;99.90;;;;;;4957090;28;20129;-44
2022/08/05 07:43:10;;;;;;;6.40;4.53;;;23.30;99.90;;;;;;4956548;28;20110;-45
2022/08/05 07:45:36;;;;;;;4.90;3.45;;;23.30;99.90;;;;;;4956897;28;20038;-45
2022/08/05 07:48:01;;;;;;;4.97;4.28;;;23.30;99.90;;;;;;4956797;28;20400;-49
2022/08/05 07:50:27;;;;;;;7.03;4.13;;;23.30;99.90;;;;;;4956658;29;20122;-44
2022/08/05 07:52:52;;;;;;;4.22;3.83;;;23.40;99.90;;;;;;4956642;29;20122;-45
2022/08/05 07:55:18;;;;;;;7.38;3.70;;;23.30;99.90;;;;;;4956404;28;20039;-44
2022/08/05 07:57:43;;;;;;;7.90;4.40;;;23.30;99.90;;;;;;4956745;28;20082;-44
2022/08/05 08:00:10;;;;;;;5.28;3.85;;;23.40;99.90;;;;;;4956370;29;20039;-45
2022/08/05 08:02:35;;;;;;;5.57;3.60;;;23.30;99.90;;;;;;4955241;28;20035;-47
2022/08/05 08:05:01;;;;;;;8.50;4.28;;;23.30;99.90;;;;;;4957409;28;20042;-48
2022/08/05 08:07:27;;;;;;;6.00;3.15;;;23.30;99.90;;;;;;4956042;29;20492;-49
2022/08/05 08:09:52;;;;;;;6.00;3.65;;;23.40;99.90;;;;;;4955932;28;20537;-45
2022/08/05 08:12:22;;;;;;;8.38;3.42;;;23.40;99.90;;;;;;4955942;29;20119;-47
2022/08/05 08:14:48;;;;;;;8.25;3.92;;;23.40;99.90;;;;;;4955061;28;20513;-44
2022/08/05 08:17:13;;;;;;;3.95;3.35;;;23.30;99.90;;;;;;4955130;29;20034;-48
2022/08/05 08:19:40;;;;;;;3.78;3.33;;;23.30;99.90;;;;;;4956202;29;20070;-48
2022/08/05 08:22:06;;;;;;;3.90;3.50;;;23.30;99.90;;;;;;4960870;28;20038;-45
2022/08/05 08:24:32;;;;;;;4.95;3.65;;;23.40;99.90;;;;;;4955589;28;20039;-45
2022/08/05 08:26:57;;;;;;;4.10;3.72;;;23.40;99.90;;;;;;4955806;29;20432;-46
2022/08/05 08:29:23;;;;;;;4.32;3.83;;;23.40;99.90;;;;;;4954776;29;20038;-45
2022/08/05 08:31:50;;;;;;;7.97;3.53;;;23.40;99.90;;;;;;4964328;28;20073;-42
2022/08/05 08:34:17;;;;;;;9.15;4.00;;;23.40;99.90;;;;;;4956462;28;20019;-45
2022/08/05 08:36:43;;;;;;;7.57;3.72;;;23.40;99.90;;;;;;4954975;28;20031;-43
2022/08/05 08:39:08;;;;;;;3.58;3.28;;;23.40;99.90;;;;;;4955658;29;20038;-45
2022/08/05 08:41:36;;;;;;;3.78;3.47;;;23.40;99.90;;;;;;4955668;29;20024;-45
2022/08/05 08:44:03;;;;;;;4.13;2.80;;;23.40;99.90;;;;;;4955280;28;20035;-44
2022/08/05 08:46:31;;;;;;;4.13;3.03;;;23.40;99.90;;;;;;4953313;28;20031;-48
2022/08/05 08:48:57;;;;;;;4.60;3.20;;;23.50;99.90;;;;;;4954095;29;20030;-46
2022/08/05 08:51:26;;;;;;;5.70;3.22;;;23.60;99.90;;;;;;4955576;28;20038;-45
2022/08/05 08:53:52;;;;;;;5.95;3.63;;;23.60;99.90;;;;;;4954570;28;20023;-43
2022/08/05 08:56:19;;;;;;;3.22;2.92;;;23.60;99.90;;;;;;4953237;29;20023;-43
2022/08/05 08:58:46;;;;;;;4.82;3.63;;;23.80;99.90;;;;;;4953383;28;20039;-44
2022/08/05 09:01:11;;;;;;;6.75;2.78;;;24.00;99.90;;;;;;4954988;28;20110;-45
2022/08/05 09:03:39;;;;;;;3.70;3.30;;;24.20;99.90;;;;;;4955021;28;20106;-44
2022/08/05 09:06:04;;;;;;;4.80;2.92;;;24.40;99.90;;;;;;4955017;28;20031;-47
2022/08/05 09:08:30;;;;;;;6.45;3.70;;;24.40;99.90;;;;;;4958232;28;20026;-46
2022/08/05 09:10:56;;;;;;;3.20;2.65;;;24.50;99.90;;;;;;4974661;28;20468;-44
2022/08/05 09:13:22;;;;;;;2.80;2.58;;;24.40;99.90;;;;;;4974180;28;20109;-44
2022/08/05 09:15:48;;;;;;;2.95;2.30;;;24.40;99.90;;;;;;4954384;28;20123;-42
2022/08/05 09:18:14;;;;;;;3.60;2.70;;;24.40;99.90;;;;;;4951430;29;20373;-45
2022/08/05 09:20:43;;;;;;;4.53;2.97;;;24.40;99.90;;;;;;4955083;28;20023;-44
2022/08/05 09:23:16;;;;;;;3.60;2.75;;;24.40;99.90;;;;;;4954581;28;20077;-43
2022/08/05 09:25:44;;;;;;;4.40;2.58;;;24.40;99.90;;;;;;4955095;28;20020;-46
2022/08/05 09:28:11;;;;;;;4.50;2.83;;;24.40;99.90;;;;;;4954834;28;20031;-44
2022/08/05 09:30:37;;;;;;;3.67;3.25;;;24.40;99.90;;;;;;4965974;28;20026;-51
2022/08/05 09:33:03;;;;;;;2.83;2.50;;;24.40;99.90;;;;;;4973559;28;20033;-49
2022/08/05 09:35:28;;;;;;;23.75;17.92;;;24.40;99.90;;;;;;4960717;28;20027;-46
2022/08/05 09:37:55;;;;;;;20.50;15.00;;;24.40;99.90;;;;;;4954290;29;20404;-45
2022/08/05 09:40:38;;;;;;;3.45;3.15;;;24.60;99.90;;;;;;4952437;29;20441;-45
2022/08/05 09:43:09;;;;;;;3.78;2.85;;;24.60;99.90;;;;;;4953693;28;20035;-50
2022/08/05 09:45:39;;;;;;;3.40;2.83;;;24.80;99.90;;;;;;4954062;28;20024;-47
2022/08/05 09:48:31;;;;;;;3.85;3.13;;;25.00;99.90;;;;;;4965433;28;20023;-50
2022/08/05 09:51:08;;;;;;;3.88;2.22;;;25.20;99.90;;;;;;4954175;28;20023;-42
2022/08/05 09:53:47;;;;;;;4.07;3.00;;;25.30;99.90;;;;;;4953822;28;20532;-46
2022/08/05 09:56:12;;;;;;;4.57;3.55;;;25.30;99.90;;;;;;4952195;28;20122;-49
2022/08/05 09:58:38;;;;;;;6.28;2.95;;;25.20;99.90;;;;;;4953933;29;20110;-53
2022/08/05 10:01:05;;;;;;;2.60;2.40;;;25.10;99.90;;;;;;4954179;29;20031;-51
2022/08/05 10:03:32;;;;;;;4.25;3.20;;;25.00;99.90;;;;;;4954286;29;20016;-51
2022/08/05 10:06:06;;;;;;;2.88;2.33;;;25.00;99.90;;;;;;4954235;28;20082;-49
2022/08/05 10:08:32;;;;;;;3.20;2.85;;;25.00;99.90;;;;;;4954553;28;20030;-47
2022/08/05 10:10:57;;;;;;;6.13;3.55;;;25.10;99.90;;;;;;4948501;29;20322;-50
2022/08/05 10:13:28;;;;;;;2.67;2.45;;;25.00;99.90;;;;;;4953686;28;20114;-51
2022/08/05 10:15:55;;;;;;;2.53;2.33;;;25.10;99.90;;;;;;4954260;28;20441;-48
2022/08/05 10:18:24;;;;;;;2.50;2.30;;;25.20;99.90;;;;;;4954664;28;20110;-46
2022/08/05 10:20:55;;;;;;;4.75;2.25;;;25.30;99.90;;;;;;4942371;28;20038;-53
2022/08/05 10:23:22;;;;;;;3.78;2.58;;;25.40;99.90;;;;;;4934541;29;20066;-52
2022/08/05 10:25:48;;;;;;;4.00;2.45;;;25.50;99.90;;;;;;4934509;29;20036;-47
2022/08/05 10:28:15;;;;;;;3.17;2.38;;;25.70;99.90;;;;;;4934615;29;20028;-51
2022/08/05 10:30:41;;;;;;;2.80;2.47;;;25.90;99.90;;;;;;4934526;29;20047;-51
2022/08/05 10:33:07;;;;;;;3.60;2.60;;;26.10;99.90;;;;;;4934174;29;20028;-53
2022/08/05 10:35:34;;;;;;;4.25;2.30;;;26.30;99.90;;;;;;4933226;29;20027;-49
2022/08/05 10:38:00;;;;;;;2.22;2.03;;;26.30;99.90;;;;;;4938856;28;20031;-49
2022/08/05 10:40:26;;;;;;;2.95;2.50;;;26.20;99.90;;;;;;4962403;28;20113;-48
2022/08/05 10:42:54;;;;;;;3.03;2.47;;;26.20;99.90;;;;;;4972717;28;20105;-51
2022/08/05 10:45:27;;;;;;;2.80;2.33;;;26.30;99.90;;;;;;4967109;28;20509;-52
2022/08/05 10:47:53;;;;;;;4.75;2.38;;;26.40;99.90;;;;;;4953522;28;20031;-50
2022/08/05 10:50:19;;;;;;;4.28;2.45;;;26.40;99.90;;;;;;4953435;29;20027;-51
2022/08/05 10:52:59;;;;;;;5.75;5.25;;;26.50;99.90;;;;;;4953358;28;20035;-47
2022/08/05 10:55:26;;;;;;;3.53;2.30;;;26.60;99.90;;;;;;4953578;28;20045;-52
2022/08/05 10:58:10;;;;;;;9.13;6.18;;;26.60;99.90;;;;;;4937505;28;20092;-49
2022/08/05 11:00:36;;;;;;;3.30;2.57;;;26.70;99.90;;;;;;4934189;29;20493;-51
2022/08/05 11:03:05;;;;;;;2.88;2.28;;;26.70;99.90;;;;;;4932599;29;20355;-50
2022/08/05 11:05:33;;;;;;;5.05;3.72;;;26.60;99.90;;;;;;4933932;29;20054;-47
2022/08/05 11:08:09;;;;;;;2.33;2.00;;;26.50;99.90;;;;;;4935100;29;20390;-51
2022/08/05 11:10:37;;;;;;;3.50;2.55;;;26.30;99.90;;;;;;4938213;29;20024;-49
2022/08/05 11:13:04;;;;;;;3.20;2.25;;;26.20;99.90;;;;;;4937669;29;20027;-54
2022/08/05 11:15:38;;;;;;;4.03;2.40;;;26.00;99.90;;;;;;4937991;29;20035;-46
2022/08/05 11:18:24;;;;;;;3.78;2.60;;;25.90;99.90;;;;;;4938047;29;20500;-47
2022/08/05 11:20:51;;;;;;;2.97;2.63;;;25.90;99.90;;;;;;4938021;29;20145;-47
2022/08/05 11:23:50;;;;;;;3.75;2.50;;;25.90;99.90;;;;;;4937281;29;20035;-49
2022/08/05 11:26:16;;;;;;;3.53;2.70;;;26.00;99.90;;;;;;4937910;29;20075;-48
2022/08/05 11:28:44;;;;;;;4.78;2.50;;;26.20;99.90;;;;;;4937970;29;20020;-48
2022/08/05 11:31:10;;;;;;;2.17;2.03;;;26.40;99.90;;;;;;4937890;29;20020;-47
2022/08/05 11:33:39;;;;;;;3.03;2.42;;;26.60;99.90;;;;;;4937358;29;20079;-46
2022/08/05 11:36:07;;;;;;;5.40;3.20;;;26.70;99.90;;;;;;4937625;29;20127;-47
2022/08/05 11:38:54;;;;;;;2.55;2.35;;;26.70;99.90;;;;;;4937635;29;20399;-49
2022/08/05 11:41:24;;;;;;;4.55;2.95;;;26.80;99.90;;;;;;4937886;29;20055;-48
2022/08/05 11:44:09;;;;;;;2.72;2.53;;;26.80;99.70;;;;;;4937279;29;20053;-53
2022/08/05 11:46:39;;;;;;;5.88;3.25;;;26.80;99.70;;;;;;4952443;28;20062;-48
2022/08/05 11:49:06;;;;;;;8.32;2.13;;;26.60;99.90;;;;;;4956848;28;20019;-46
2022/08/05 11:51:33;;;;;;;2.63;2.42;;;26.60;99.70;;;;;;4956279;28;20035;-51
2022/08/05 11:54:01;;;;;;;3.83;2.17;;;26.60;99.90;;;;;;4956394;29;20019;-47
2022/08/05 11:57:05;;;;;;;3.25;2.95;;;26.60;99.70;;;;;;4955832;29;20028;-48
2022/08/05 11:59:32;;;;;;;2.50;2.22;;;26.60;99.90;;;;;;4896272;29;20040;-47
2022/08/05 12:02:04;;;;;;;2.70;2.50;;;26.60;99.50;;;;;;4896894;29;20064;-47
2022/08/05 12:04:47;;;;;;;6.10;2.70;;;26.60;99.90;;;;;;4896729;29;20044;-48
2022/08/05 12:07:15;;;;;;;3.15;2.60;;;26.70;99.90;;;;;;4896957;29;20502;-49
2022/08/05 12:09:52;;;;;;;2.83;2.45;;;26.70;99.90;;;;;;4896943;29;20036;-47
2022/08/05 12:12:27;;;;;;;3.42;2.60;;;26.70;99.90;;;;;;4956143;28;20015;-48
2022/08/05 12:14:53;;;;;;;2.75;2.38;;;26.70;99.90;;;;;;4955979;28;20035;-52
2022/08/05 12:17:19;;;;;;;3.53;2.53;;;26.90;99.90;;;;;;4955570;28;20408;-49
2022/08/05 12:19:51;;;;;;;3.60;2.72;;;26.90;99.90;;;;;;4955116;28;20035;-49
2022/08/05 12:22:19;;;;;;;2.53;2.40;;;27.00;99.90;;;;;;4955526;28;20031;-47
2022/08/05 12:24:54;;;;;;;6.93;2.78;;;27.10;99.60;;;;;;4954775;28;20114;-49
2022/08/05 12:27:22;;;;;;;3.42;2.80;;;27.30;99.20;;;;;;4954647;28;20519;-49
2022/08/05 12:30:06;;;;;;;2.47;2.28;;;27.20;99.20;;;;;;4955575;28;20027;-49
2022/08/05 12:32:34;;;;;;;2.92;2.63;;;27.20;99.10;;;;;;4955549;28;20429;-48
2022/08/05 12:35:01;;;;;;;3.20;3.00;;;27.10;99.10;;;;;;4955438;28;20087;-48
2022/08/05 12:37:27;;;;;;;2.80;2.60;;;27.20;99.70;;;;;;4955324;28;20397;-45
2022/08/05 12:39:56;;;;;;;3.03;2.40;;;27.30;99.90;;;;;;4955544;28;20032;-45
2022/08/05 12:42:21;;;;;;;3.20;2.70;;;27.30;99.90;;;;;;4955588;28;20027;-47
2022/08/05 12:44:48;;;;;;;3.03;2.75;;;27.30;99.20;;;;;;4955360;29;20035;-46
2022/08/05 12:47:26;;;;;;;4.43;3.38;;;27.20;99.10;;;;;;4955556;28;20041;-46
2022/08/05 12:49:51;;;;;;;5.35;3.03;;;27.00;99.90;;;;;;4955718;28;20378;-45
2022/08/05 12:52:18;;;;;;;3.30;2.63;;;27.00;99.90;;;;;;4956080;29;20034;-46
2022/08/05 12:54:47;;;;;;;3.63;2.92;;;27.00;99.90;;;;;;4955668;28;20077;-44